sensor_id;sensor_type;location;lat;lon;timestamp;temperature;humidity
25332;DHT22;13284;52.748;13.452;2023-02-15T00:00:34;4.50;99.90
25332;DHT22;13284;52.748;13.452;2023-02-15T00:03:00;4.50;99.90
25332;DHT22;13284;52.748;13.452;2023-02-15T00:05:26;4.40;99.90
25332;DHT22;13284;52.748;13.452;2023-02-15T00:07:51;4.10;99.90
25332;DHT22;13284;52.748;13.452;2023-02-15T00:10:17;4.00;99.90
25332;DHT22;13284;52.748;13.452;2023-02-15T00:12:42;3.90;99.90
25332;DHT22;13284;52.748;13.452;2023-02-15T00:15:11;3.80;99.90
25332;DHT22;13284;52.748;13.452;2023-02-15T00:17:38;3.70;99.90
25332;DHT22;13284;52.748;13.452;2023-02-15T00:20:04;3.60;99.90
25332;DHT22;13284;52.748;13.452;2023-02-15T00:22:30;3.40;99.90
25332;DHT22;13284;52.748;13.452;2023-02-15T00:24:55;3.50;99.90
25332;DHT22;13284;52.748;13.452;2023-02-15T00:27:21;3.40;99.90
25332;DHT22;13284;52.748;13.452;2023-02-15T00:29:47;3.40;99.90
25332;DHT22;13284;52.748;13.452;2023-02-15T00:32:12;3.30;99.90
25332;DHT22;13284;52.748;13.452;2023-02-15T00:34:38;3.40;99.90
25332;DHT22;13284;52.748;13.452;2023-02-15T00:37:04;3.40;99.90
25332;DHT22;13284;52.748;13.452;2023-02-15T00:39:29;3.50;99.90
25332;DHT22;13284;52.748;13.452;2023-02-15T00:41:55;3.50;99.90
25332;DHT22;13284;52.748;13.452;2023-02-15T00:44:20;3.60;99.90
25332;DHT22;13284;52.748;13.452;2023-02-15T00:46:46;3.60;99.90
25332;DHT22;13284;52.748;13.452;2023-02-15T00:49:14;3.60;99.90
25332;DHT22;13284;52.748;13.452;2023-02-15T00:51:43;3.60;99.90
25332;DHT22;13284;52.748;13.452;2023-02-15T00:54:08;3.60;99.90
25332;DHT22;13284;52.748;13.452;2023-02-15T00:56:34;3.40;99.90
25332;DHT22;13284;52.748;13.452;2023-02-15T00:58:59;3.30;99.90
25332;DHT22;13284;52.748;13.452;2023-02-15T01:01:25;3.20;99.90
25332;DHT22;13284;52.748;13.452;2023-02-15T01:03:51;3.10;99.90
25332;DHT22;13284;52.748;13.452;2023-02-15T01:06:17;3.00;99.90
25332;DHT22;13284;52.748;13.452;2023-02-15T01:08:46;2.80;99.90
25332;DHT22;13284;52.748;13.452;2023-02-15T01:11:18;2.70;99.90
25332;DHT22;13284;52.748;13.452;2023-02-15T01:13:51;2.60;99.90
25332;DHT22;13284;52.748;13.452;2023-02-15T01:16:18;2.50;99.90
25332;DHT22;13284;52.748;13.452;2023-02-15T01:18:43;2.60;99.90
25332;DHT22;13284;52.748;13.452;2023-02-15T01:21:13;2.50;99.90
25332;DHT22;13284;52.748;13.452;2023-02-15T01:23:40;2.40;99.90
25332;DHT22;13284;52.748;13.452;2023-02-15T01:26:06;2.40;99.90
25332;DHT22;13284;52.748;13.452;2023-02-15T01:28:31;2.30;99.90
25332;DHT22;13284;52.748;13.452;2023-02-15T01:30:57;2.30;99.90
25332;DHT22;13284;52.748;13.452;2023-02-15T01:33:24;2.20;99.90
25332;DHT22;13284;52.748;13.452;2023-02-15T01:35:57;2.00;99.90
25332;DHT22;13284;52.748;13.452;2023-02-15T01:38:23;1.90;99.90
25332;DHT22;13284;52.748;13.452;2023-02-15T01:40:51;1.90;99.90
25332;DHT22;13284;52.748;13.452;2023-02-15T01:43:20;1.90;99.90
25332;DHT22;13284;52.748;13.452;2023-02-15T01:45:47;1.80;99.90
25332;DHT22;13284;52.748;13.452;2023-02-15T01:48:20;1.80;99.90
25332;DHT22;13284;52.748;13.452;2023-02-15T01:50:54;1.70;99.90
25332;DHT22;13284;52.748;13.452;2023-02-15T01:53:29;1.60;99.90
25332;DHT22;13284;52.748;13.452;2023-02-15T01:56:03;1.60;99.90
25332;DHT22;13284;52.748;13.452;2023-02-15T01:58:32;1.60;99.90
25332;DHT22;13284;52.748;13.452;2023-02-15T02:01:00;1.60;99.90
25332;DHT22;13284;52.748;13.452;2023-02-15T02:03:36;1.50;99.90
25332;DHT22;13284;52.748;13.452;2023-02-15T02:06:04;1.40;99.90
25332;DHT22;13284;52.748;13.452;2023-02-15T02:08:30;1.30;99.90
25332;DHT22;13284;52.748;13.452;2023-02-15T02:10:56;1.30;99.90
25332;DHT22;13284;52.748;13.452;2023-02-15T02:13:21;1.30;99.90
25332;DHT22;13284;52.748;13.452;2023-02-15T02:16:00;1.20;99.90
25332;DHT22;13284;52.748;13.452;2023-02-15T02:19:04;1.20;99.90
25332;DHT22;13284;52.748;13.452;2023-02-15T02:32:51;0.90;99.90
25332;DHT22;13284;52.748;13.452;2023-02-15T02:35:27;0.80;99.90
25332;DHT22;13284;52.748;13.452;2023-02-15T02:44:16;0.70;99.90
25332;DHT22;13284;52.748;13.452;2023-02-15T02:46:52;0.70;99.90
25332;DHT22;13284;52.748;13.452;2023-02-15T02:49:38;0.60;99.90
25332;DHT22;13284;52.748;13.452;2023-02-15T02:52:38;0.60;99.90
25332;DHT22;13284;52.748;13.452;2023-02-15T02:55:30;0.60;99.90
25332;DHT22;13284;52.748;13.452;2023-02-15T02:58:05;0.50;99.90
25332;DHT22;13284;52.748;13.452;2023-02-15T03:01:03;0.50;99.90
25332;DHT22;13284;52.748;13.452;2023-02-15T03:03:38;0.50;99.90
25332;DHT22;13284;52.748;13.452;2023-02-15T03:06:09;0.40;99.90
25332;DHT22;13284;52.748;13.452;2023-02-15T03:08:40;0.40;99.90
25332;DHT22;13284;52.748;13.452;2023-02-15T03:11:07;0.40;99.90
25332;DHT22;13284;52.748;13.452;2023-02-15T03:13:34;0.30;99.90
25332;DHT22;13284;52.748;13.452;2023-02-15T03:16:00;0.30;99.90
25332;DHT22;13284;52.748;13.452;2023-02-15T03:18:53;0.20;99.90
25332;DHT22;13284;52.748;13.452;2023-02-15T03:21:31;0.20;99.90
25332;DHT22;13284;52.748;13.452;2023-02-15T03:24:03;0.10;99.90
25332;DHT22;13284;52.748;13.452;2023-02-15T03:26:33;0.10;99.90
25332;DHT22;13284;52.748;13.452;2023-02-15T03:29:00;0.10;99.90
25332;DHT22;13284;52.748;13.452;2023-02-15T03:31:32;0.00;99.90
25332;DHT22;13284;52.748;13.452;2023-02-15T03:34:02;0.00;99.90
25332;DHT22;13284;52.748;13.452;2023-02-15T03:39:20;0.00;99.90
25332;DHT22;13284;52.748;13.452;2023-02-15T03:42:25;0.00;99.90
25332;DHT22;13284;52.748;13.452;2023-02-15T03:44:54;-0.20;99.90
25332;DHT22;13284;52.748;13.452;2023-02-15T03:47:29;-0.20;99.90
25332;DHT22;13284;52.748;13.452;2023-02-15T03:50:21;0.00;99.90
25332;DHT22;13284;52.748;13.452;2023-02-15T03:53:08;0.00;99.90
25332;DHT22;13284;52.748;13.452;2023-02-15T03:55:35;-0.20;99.90
25332;DHT22;13284;52.748;13.452;2023-02-15T03:58:01;-0.20;99.90
25332;DHT22;13284;52.748;13.452;2023-02-15T04:00:53;-0.30;99.90
25332;DHT22;13284;52.748;13.452;2023-02-15T04:04:12;-0.30;99.90
25332;DHT22;13284;52.748;13.452;2023-02-15T04:06:40;-0.30;99.90
25332;DHT22;13284;52.748;13.452;2023-02-15T04:09:06;-0.30;99.90
25332;DHT22;13284;52.748;13.452;2023-02-15T04:11:50;-0.30;99.90
25332;DHT22;13284;52.748;13.452;2023-02-15T04:14:15;-0.30;99.90
25332;DHT22;13284;52.748;13.452;2023-02-15T04:16:59;-0.40;99.90
25332;DHT22;13284;52.748;13.452;2023-02-15T04:19:25;-0.40;99.90
25332;DHT22;13284;52.748;13.452;2023-02-15T04:22:09;-0.40;99.90
25332;DHT22;13284;52.748;13.452;2023-02-15T04:24:53;-0.50;99.90
25332;DHT22;13284;52.748;13.452;2023-02-15T04:27:38;-0.50;99.90
25332;DHT22;13284;52.748;13.452;2023-02-15T04:30:05;-0.50;99.90
25332;DHT22;13284;52.748;13.452;2023-02-15T04:32:31;-0.60;99.90
25332;DHT22;13284;52.748;13.452;2023-02-15T04:34:56;-0.60;99.90
25332;DHT22;13284;52.748;13.452;2023-02-15T04:37:22;-0.60;99.90
25332;DHT22;13284;52.748;13.452;2023-02-15T04:39:47;-0.60;99.90
25332;DHT22;13284;52.748;13.452;2023-02-15T04:42:15;-0.60;99.90
25332;DHT22;13284;52.748;13.452;2023-02-15T04:44:40;-0.60;99.90
25332;DHT22;13284;52.748;13.452;2023-02-15T04:47:06;-0.60;99.90
25332;DHT22;13284;52.748;13.452;2023-02-15T04:49:31;-0.60;99.90
25332;DHT22;13284;52.748;13.452;2023-02-15T04:52:03;-0.60;99.90
25332;DHT22;13284;52.748;13.452;2023-02-15T04:54:29;-0.60;99.90
25332;DHT22;13284;52.748;13.452;2023-02-15T04:56:54;-0.70;99.90
25332;DHT22;13284;52.748;13.452;2023-02-15T04:59:20;-0.80;99.90
25332;DHT22;13284;52.748;13.452;2023-02-15T05:01:48;-0.80;99.90
25332;DHT22;13284;52.748;13.452;2023-02-15T05:04:13;-0.80;99.90
25332;DHT22;13284;52.748;13.452;2023-02-15T05:06:42;-0.80;99.90
25332;DHT22;13284;52.748;13.452;2023-02-15T05:09:15;-0.80;99.90
25332;DHT22;13284;52.748;13.452;2023-02-15T05:11:44;-1.00;99.90
25332;DHT22;13284;52.748;13.452;2023-02-15T05:14:19;-0.90;99.90
25332;DHT22;13284;52.748;13.452;2023-02-15T05:16:45;-0.90;99.90
25332;DHT22;13284;52.748;13.452;2023-02-15T05:19:11;-1.00;99.90
25332;DHT22;13284;52.748;13.452;2023-02-15T05:21:37;-1.00;99.90
25332;DHT22;13284;52.748;13.452;2023-02-15T05:24:02;-1.00;99.90
25332;DHT22;13284;52.748;13.452;2023-02-15T05:26:48;-1.00;99.90
25332;DHT22;13284;52.748;13.452;2023-02-15T05:29:32;-1.00;99.90
25332;DHT22;13284;52.748;13.452;2023-02-15T05:31:58;-1.00;99.90
25332;DHT22;13284;52.748;13.452;2023-02-15T05:34:24;-1.00;99.90
25332;DHT22;13284;52.748;13.452;2023-02-15T05:36:50;-1.00;99.90
25332;DHT22;13284;52.748;13.452;2023-02-15T05:39:15;-1.00;99.90
25332;DHT22;13284;52.748;13.452;2023-02-15T05:41:43;-1.00;99.90
25332;DHT22;13284;52.748;13.452;2023-02-15T05:44:11;-1.00;99.90
25332;DHT22;13284;52.748;13.452;2023-02-15T05:46:36;-1.10;99.90
25332;DHT22;13284;52.748;13.452;2023-02-15T05:49:02;-1.00;99.90
25332;DHT22;13284;52.748;13.452;2023-02-15T05:51:28;-1.00;99.90
25332;DHT22;13284;52.748;13.452;2023-02-15T05:53:53;-1.00;99.90
25332;DHT22;13284;52.748;13.452;2023-02-15T05:56:19;-0.90;99.90
25332;DHT22;13284;52.748;13.452;2023-02-15T05:58:44;-1.00;99.90
25332;DHT22;13284;52.748;13.452;2023-02-15T06:01:19;-1.00;99.90
25332;DHT22;13284;52.748;13.452;2023-02-15T06:03:47;-0.90;99.90
25332;DHT22;13284;52.748;13.452;2023-02-15T06:06:13;-0.90;99.90
25332;DHT22;13284;52.748;13.452;2023-02-15T06:08:38;-0.90;99.90
25332;DHT22;13284;52.748;13.452;2023-02-15T06:11:05;-0.80;99.90
25332;DHT22;13284;52.748;13.452;2023-02-15T06:13:31;-0.70;99.90
25332;DHT22;13284;52.748;13.452;2023-02-15T06:15:59;-0.70;99.90
25332;DHT22;13284;52.748;13.452;2023-02-15T06:18:28;-0.60;99.90
25332;DHT22;13284;52.748;13.452;2023-02-15T06:20:54;-0.60;99.90
25332;DHT22;13284;52.748;13.452;2023-02-15T06:23:19;-0.60;99.90
25332;DHT22;13284;52.748;13.452;2023-02-15T06:25:47;-0.60;99.90
25332;DHT22;13284;52.748;13.452;2023-02-15T06:28:30;-0.60;99.90
25332;DHT22;13284;52.748;13.452;2023-02-15T06:30:56;-0.60;99.90
25332;DHT22;13284;52.748;13.452;2023-02-15T06:33:27;-0.50;99.90
25332;DHT22;13284;52.748;13.452;2023-02-15T06:35:52;-0.50;99.90
25332;DHT22;13284;52.748;13.452;2023-02-15T06:38:18;-0.50;99.90
25332;DHT22;13284;52.748;13.452;2023-02-15T06:40:44;-0.40;99.90
25332;DHT22;13284;52.748;13.452;2023-02-15T06:43:09;-0.40;99.90
25332;DHT22;13284;52.748;13.452;2023-02-15T06:45:35;-0.40;99.90
25332;DHT22;13284;52.748;13.452;2023-02-15T06:48:04;-0.30;99.90
25332;DHT22;13284;52.748;13.452;2023-02-15T06:50:32;-0.40;99.90
25332;DHT22;13284;52.748;13.452;2023-02-15T06:52:58;-0.30;99.90
25332;DHT22;13284;52.748;13.452;2023-02-15T06:55:42;-0.20;99.90
25332;DHT22;13284;52.748;13.452;2023-02-15T06:58:08;-0.10;99.90
25332;DHT22;13284;52.748;13.452;2023-02-15T07:00:33;0.00;99.90
25332;DHT22;13284;52.748;13.452;2023-02-15T07:02:59;0.00;99.90
25332;DHT22;13284;52.748;13.452;2023-02-15T07:08:20;0.20;99.90
25332;DHT22;13284;52.748;13.452;2023-02-15T07:10:46;0.30;99.90
25332;DHT22;13284;52.748;13.452;2023-02-15T07:13:11;0.30;99.90
25332;DHT22;13284;52.748;13.452;2023-02-15T07:15:37;0.40;99.90
25332;DHT22;13284;52.748;13.452;2023-02-15T07:18:03;0.40;99.90
25332;DHT22;13284;52.748;13.452;2023-02-15T07:20:30;0.50;99.90
25332;DHT22;13284;52.748;13.452;2023-02-15T07:22:56;0.50;99.90
25332;DHT22;13284;52.748;13.452;2023-02-15T07:25:25;0.60;99.90
25332;DHT22;13284;52.748;13.452;2023-02-15T07:27:58;0.60;99.90
25332;DHT22;13284;52.748;13.452;2023-02-15T07:30:30;0.60;99.90
25332;DHT22;13284;52.748;13.452;2023-02-15T07:32:59;0.60;99.90
25332;DHT22;13284;52.748;13.452;2023-02-15T07:35:55;0.60;99.90
25332;DHT22;13284;52.748;13.452;2023-02-15T07:38:33;0.70;99.90
25332;DHT22;13284;52.748;13.452;2023-02-15T07:41:05;0.80;99.90
25332;DHT22;13284;52.748;13.452;2023-02-15T07:43:41;0.90;99.90
25332;DHT22;13284;52.748;13.452;2023-02-15T07:46:09;0.90;99.90
25332;DHT22;13284;52.748;13.452;2023-02-15T07:48:41;0.90;99.90
25332;DHT22;13284;52.748;13.452;2023-02-15T07:51:08;1.00;99.90
25332;DHT22;13284;52.748;13.452;2023-02-15T07:53:35;0.90;99.90
25332;DHT22;13284;52.748;13.452;2023-02-15T07:56:03;1.00;99.90
25332;DHT22;13284;52.748;13.452;2023-02-15T07:58:29;1.10;99.90
25332;DHT22;13284;52.748;13.452;2023-02-15T08:01:14;1.10;99.90
25332;DHT22;13284;52.748;13.452;2023-02-15T08:03:40;1.20;99.90
25332;DHT22;13284;52.748;13.452;2023-02-15T08:06:06;1.30;99.90
25332;DHT22;13284;52.748;13.452;2023-02-15T08:08:35;1.30;99.90
25332;DHT22;13284;52.748;13.452;2023-02-15T08:11:04;1.30;99.90
25332;DHT22;13284;52.748;13.452;2023-02-15T08:14:09;1.40;99.90
25332;DHT22;13284;52.748;13.452;2023-02-15T08:16:41;1.50;99.90
25332;DHT22;13284;52.748;13.452;2023-02-15T08:19:14;1.50;99.90
25332;DHT22;13284;52.748;13.452;2023-02-15T08:21:54;1.50;99.90
25332;DHT22;13284;52.748;13.452;2023-02-15T08:24:23;1.50;99.90
25332;DHT22;13284;52.748;13.452;2023-02-15T08:26:55;1.60;99.90
25332;DHT22;13284;52.748;13.452;2023-02-15T08:29:25;1.60;99.90
25332;DHT22;13284;52.748;13.452;2023-02-15T08:32:00;1.70;99.90
25332;DHT22;13284;52.748;13.452;2023-02-15T08:34:36;1.80;99.90
25332;DHT22;13284;52.748;13.452;2023-02-15T08:37:05;1.90;99.90
25332;DHT22;13284;52.748;13.452;2023-02-15T08:39:31;1.70;99.90
25332;DHT22;13284;52.748;13.452;2023-02-15T08:41:57;1.80;99.90
25332;DHT22;13284;52.748;13.452;2023-02-15T08:44:25;1.80;99.90
25332;DHT22;13284;52.748;13.452;2023-02-15T08:46:51;1.80;99.90
25332;DHT22;13284;52.748;13.452;2023-02-15T08:49:19;1.80;99.90
25332;DHT22;13284;52.748;13.452;2023-02-15T08:51:45;1.90;99.90
25332;DHT22;13284;52.748;13.452;2023-02-15T08:54:19;1.90;99.90
25332;DHT22;13284;52.748;13.452;2023-02-15T08:56:46;1.90;99.90
25332;DHT22;13284;52.748;13.452;2023-02-15T08:59:18;2.20;99.90
25332;DHT22;13284;52.748;13.452;2023-02-15T09:01:44;2.00;99.90
25332;DHT22;13284;52.748;13.452;2023-02-15T09:04:10;1.90;99.90
25332;DHT22;13284;52.748;13.452;2023-02-15T09:06:57;1.90;99.90
25332;DHT22;13284;52.748;13.452;2023-02-15T09:09:26;1.90;99.90
25332;DHT22;13284;52.748;13.452;2023-02-15T09:11:51;1.90;99.90
25332;DHT22;13284;52.748;13.452;2023-02-15T09:14:19;2.00;99.90
25332;DHT22;13284;52.748;13.452;2023-02-15T09:16:46;2.20;99.90
25332;DHT22;13284;52.748;13.452;2023-02-15T09:19:15;2.30;99.90
25332;DHT22;13284;52.748;13.452;2023-02-15T09:21:41;2.20;99.90
25332;DHT22;13284;52.748;13.452;2023-02-15T09:24:09;2.20;99.90
25332;DHT22;13284;52.748;13.452;2023-02-15T09:26:39;1.90;99.90
25332;DHT22;13284;52.748;13.452;2023-02-15T09:29:06;2.00;99.90
25332;DHT22;13284;52.748;13.452;2023-02-15T09:31:44;2.10;99.90
25332;DHT22;13284;52.748;13.452;2023-02-15T09:34:16;2.40;99.90
25332;DHT22;13284;52.748;13.452;2023-02-15T09:36:42;2.50;99.90
25332;DHT22;13284;52.748;13.452;2023-02-15T09:39:20;2.40;99.90
25332;DHT22;13284;52.748;13.452;2023-02-15T09:44:47;2.30;99.90
25332;DHT22;13284;52.748;13.452;2023-02-15T09:53:37;2.40;99.90
25332;DHT22;13284;52.748;13.452;2023-02-15T09:56:24;2.60;99.90
25332;DHT22;13284;52.748;13.452;2023-02-15T10:13:03;3.30;99.90
25332;DHT22;13284;52.748;13.452;2023-02-15T10:18:48;3.70;99.90
25332;DHT22;13284;52.748;13.452;2023-02-15T10:26:49;4.20;99.90
25332;DHT22;13284;52.748;13.452;2023-02-15T10:29:36;4.30;99.90
25332;DHT22;13284;52.748;13.452;2023-02-15T10:32:10;4.30;99.90
25332;DHT22;13284;52.748;13.452;2023-02-15T10:34:50;4.30;99.90
25332;DHT22;13284;52.748;13.452;2023-02-15T10:40:37;4.10;99.90
25332;DHT22;13284;52.748;13.452;2023-02-15T10:46:06;4.20;99.90
25332;DHT22;13284;52.748;13.452;2023-02-15T10:49:01;4.10;99.90
25332;DHT22;13284;52.748;13.452;2023-02-15T10:51:57;4.10;99.90
25332;DHT22;13284;52.748;13.452;2023-02-15T10:54:36;4.30;99.90
25332;DHT22;13284;52.748;13.452;2023-02-15T11:08:14;4.60;99.90
25332;DHT22;13284;52.748;13.452;2023-02-15T11:10:56;4.80;99.90
25332;DHT22;13284;52.748;13.452;2023-02-15T11:13:28;4.90;99.90
25332;DHT22;13284;52.748;13.452;2023-02-15T11:16:06;5.00;99.90
25332;DHT22;13284;52.748;13.452;2023-02-15T11:18:37;4.90;99.90
25332;DHT22;13284;52.748;13.452;2023-02-15T11:21:12;5.00;99.90
25332;DHT22;13284;52.748;13.452;2023-02-15T11:23:43;5.20;99.90
25332;DHT22;13284;52.748;13.452;2023-02-15T11:26:18;5.40;99.90
25332;DHT22;13284;52.748;13.452;2023-02-15T11:28:52;5.40;99.90
25332;DHT22;13284;52.748;13.452;2023-02-15T11:31:23;5.40;99.90
25332;DHT22;13284;52.748;13.452;2023-02-15T11:33:58;5.60;99.90
25332;DHT22;13284;52.748;13.452;2023-02-15T11:36:28;5.50;99.90
25332;DHT22;13284;52.748;13.452;2023-02-15T11:39:01;5.40;99.90
25332;DHT22;13284;52.748;13.452;2023-02-15T11:41:31;5.20;99.90
25332;DHT22;13284;52.748;13.452;2023-02-15T11:44:27;5.20;99.90
25332;DHT22;13284;52.748;13.452;2023-02-15T11:46:57;5.20;99.90
25332;DHT22;13284;52.748;13.452;2023-02-15T11:49:29;5.30;99.90
25332;DHT22;13284;52.748;13.452;2023-02-15T11:51:56;5.80;99.90
25332;DHT22;13284;52.748;13.452;2023-02-15T11:54:28;6.50;99.90
25332;DHT22;13284;52.748;13.452;2023-02-15T11:56:58;6.80;99.90
25332;DHT22;13284;52.748;13.452;2023-02-15T11:59:31;7.20;99.90
25332;DHT22;13284;52.748;13.452;2023-02-15T12:01:57;7.30;99.90
25332;DHT22;13284;52.748;13.452;2023-02-15T12:04:39;7.10;99.90
25332;DHT22;13284;52.748;13.452;2023-02-15T12:12:39;7.30;99.90
25332;DHT22;13284;52.748;13.452;2023-02-15T12:15:07;7.40;99.90
25332;DHT22;13284;52.748;13.452;2023-02-15T12:17:38;7.60;99.90
25332;DHT22;13284;52.748;13.452;2023-02-15T12:20:24;7.70;99.90
25332;DHT22;13284;52.748;13.452;2023-02-15T12:22:59;7.70;99.90
25332;DHT22;13284;52.748;13.452;2023-02-15T12:28:00;7.90;99.90
25332;DHT22;13284;52.748;13.452;2023-02-15T12:30:35;8.40;99.90
25332;DHT22;13284;52.748;13.452;2023-02-15T12:33:14;8.60;99.90
25332;DHT22;13284;52.748;13.452;2023-02-15T12:35:41;9.10;99.90
25332;DHT22;13284;52.748;13.452;2023-02-15T12:40:38;8.90;99.90
25332;DHT22;13284;52.748;13.452;2023-02-15T12:43:25;9.20;99.90
25332;DHT22;13284;52.748;13.452;2023-02-15T12:45:50;9.50;99.90
25332;DHT22;13284;52.748;13.452;2023-02-15T12:48:19;9.60;99.90
25332;DHT22;13284;52.748;13.452;2023-02-15T12:50:47;9.70;99.90
25332;DHT22;13284;52.748;13.452;2023-02-15T12:53:20;10.30;99.90
25332;DHT22;13284;52.748;13.452;2023-02-15T12:56:03;9.90;99.90
25332;DHT22;13284;52.748;13.452;2023-02-15T12:58:31;10.50;99.90
25332;DHT22;13284;52.748;13.452;2023-02-15T13:01:13;10.70;99.90
25332;DHT22;13284;52.748;13.452;2023-02-15T13:03:56;10.60;99.90
25332;DHT22;13284;52.748;13.452;2023-02-15T13:06:23;10.40;99.90
25332;DHT22;13284;52.748;13.452;2023-02-15T13:08:51;10.40;99.90
25332;DHT22;13284;52.748;13.452;2023-02-15T13:11:25;10.20;99.90
25332;DHT22;13284;52.748;13.452;2023-02-15T13:13:57;9.90;99.90
25332;DHT22;13284;52.748;13.452;2023-02-15T13:16:36;9.80;99.90
25332;DHT22;13284;52.748;13.452;2023-02-15T13:19:08;9.80;99.90
25332;DHT22;13284;52.748;13.452;2023-02-15T13:21:39;9.90;99.90
25332;DHT22;13284;52.748;13.452;2023-02-15T13:24:10;10.00;99.90
25332;DHT22;13284;52.748;13.452;2023-02-15T13:26:41;9.90;99.90
25332;DHT22;13284;52.748;13.452;2023-02-15T13:29:35;10.10;99.90
25332;DHT22;13284;52.748;13.452;2023-02-15T13:34:49;10.30;99.90
25332;DHT22;13284;52.748;13.452;2023-02-15T13:40:22;9.80;99.90
25332;DHT22;13284;52.748;13.452;2023-02-15T13:43:12;9.70;99.90
25332;DHT22;13284;52.748;13.452;2023-02-15T13:45:53;9.40;99.90
25332;DHT22;13284;52.748;13.452;2023-02-15T13:48:29;9.50;99.90
25332;DHT22;13284;52.748;13.452;2023-02-15T13:51:21;9.70;99.90
25332;DHT22;13284;52.748;13.452;2023-02-15T13:54:03;9.80;99.90
25332;DHT22;13284;52.748;13.452;2023-02-15T14:02:52;10.50;99.90
25332;DHT22;13284;52.748;13.452;2023-02-15T14:09:24;10.00;99.90
25332;DHT22;13284;52.748;13.452;2023-02-15T14:11:27;9.70;99.90
25332;DHT22;13284;52.748;13.452;2023-02-15T14:14:31;9.40;99.90
25332;DHT22;13284;52.748;13.452;2023-02-15T14:17:20;9.30;99.90
25332;DHT22;13284;52.748;13.452;2023-02-15T14:22:30;9.60;99.90
25332;DHT22;13284;52.748;13.452;2023-02-15T14:25:12;9.70;99.90
25332;DHT22;13284;52.748;13.452;2023-02-15T14:27:55;9.70;99.90
25332;DHT22;13284;52.748;13.452;2023-02-15T14:30:25;9.70;99.90
25332;DHT22;13284;52.748;13.452;2023-02-15T14:32:55;9.90;99.90
25332;DHT22;13284;52.748;13.452;2023-02-15T14:35:27;9.90;99.90
25332;DHT22;13284;52.748;13.452;2023-02-15T14:40:51;9.60;99.90
25332;DHT22;13284;52.748;13.452;2023-02-15T14:49:11;9.40;99.90
25332;DHT22;13284;52.748;13.452;2023-02-15T14:59:39;9.30;99.90
25332;DHT22;13284;52.748;13.452;2023-02-15T15:04:42;9.20;99.90
25332;DHT22;13284;52.748;13.452;2023-02-15T15:07:17;9.10;99.90
25332;DHT22;13284;52.748;13.452;2023-02-15T15:09:46;9.10;99.90
25332;DHT22;13284;52.748;13.452;2023-02-15T15:14:52;8.90;99.90
25332;DHT22;13284;52.748;13.452;2023-02-15T15:22:40;8.80;99.90
25332;DHT22;13284;52.748;13.452;2023-02-15T15:42:30;8.00;99.90
25332;DHT22;13284;52.748;13.452;2023-02-15T15:50:19;7.70;99.90
25332;DHT22;13284;52.748;13.452;2023-02-15T15:52:57;7.50;99.90
25332;DHT22;13284;52.748;13.452;2023-02-15T15:55:25;7.40;99.90
25332;DHT22;13284;52.748;13.452;2023-02-15T15:57:54;7.30;99.90
25332;DHT22;13284;52.748;13.452;2023-02-15T16:02:53;7.10;99.90
25332;DHT22;13284;52.748;13.452;2023-02-15T16:05:19;7.00;99.90
25332;DHT22;13284;52.748;13.452;2023-02-15T16:07:45;6.90;99.90
25332;DHT22;13284;52.748;13.452;2023-02-15T16:10:28;6.80;99.90
25332;DHT22;13284;52.748;13.452;2023-02-15T16:12:54;6.70;99.90
25332;DHT22;13284;52.748;13.452;2023-02-15T16:15:24;6.60;99.90
25332;DHT22;13284;52.748;13.452;2023-02-15T16:17:56;6.40;99.90
25332;DHT22;13284;52.748;13.452;2023-02-15T16:20:35;6.30;99.90
25332;DHT22;13284;52.748;13.452;2023-02-15T16:23:24;6.20;99.90
25332;DHT22;13284;52.748;13.452;2023-02-15T16:28:31;6.00;99.90
25332;DHT22;13284;52.748;13.452;2023-02-15T16:31:26;5.90;99.90
25332;DHT22;13284;52.748;13.452;2023-02-15T16:33:53;5.70;99.90
25332;DHT22;13284;52.748;13.452;2023-02-15T16:36:22;5.60;99.90
25332;DHT22;13284;52.748;13.452;2023-02-15T16:41:22;5.40;99.90
25332;DHT22;13284;52.748;13.452;2023-02-15T16:43:49;5.20;99.90
25332;DHT22;13284;52.748;13.452;2023-02-15T16:46:22;5.00;99.90
25332;DHT22;13284;52.748;13.452;2023-02-15T16:48:49;4.90;99.90
25332;DHT22;13284;52.748;13.452;2023-02-15T16:51:25;4.90;99.90
25332;DHT22;13284;52.748;13.452;2023-02-15T16:53:52;4.70;99.90
25332;DHT22;13284;52.748;13.452;2023-02-15T16:56:24;4.60;99.90
25332;DHT22;13284;52.748;13.452;2023-02-15T16:58:52;4.50;99.90
25332;DHT22;13284;52.748;13.452;2023-02-15T17:01:20;4.50;99.90
25332;DHT22;13284;52.748;13.452;2023-02-15T17:03:49;4.40;99.90
25332;DHT22;13284;52.748;13.452;2023-02-15T17:06:21;4.20;99.90
25332;DHT22;13284;52.748;13.452;2023-02-15T17:08:47;4.20;99.90
25332;DHT22;13284;52.748;13.452;2023-02-15T17:11:21;4.00;99.90
25332;DHT22;13284;52.748;13.452;2023-02-15T17:16:31;3.90;99.90
25332;DHT22;13284;52.748;13.452;2023-02-15T17:19:00;3.80;99.90
25332;DHT22;13284;52.748;13.452;2023-02-15T17:21:31;3.70;99.90
25332;DHT22;13284;52.748;13.452;2023-02-15T17:24:00;3.70;99.90
25332;DHT22;13284;52.748;13.452;2023-02-15T17:26:34;3.60;99.90
25332;DHT22;13284;52.748;13.452;2023-02-15T17:29:22;3.60;99.90
25332;DHT22;13284;52.748;13.452;2023-02-15T17:31:50;3.60;99.90
25332;DHT22;13284;52.748;13.452;2023-02-15T17:37:44;3.60;99.90
25332;DHT22;13284;52.748;13.452;2023-02-15T17:42:38;3.50;99.90
25332;DHT22;13284;52.748;13.452;2023-02-15T17:45:04;3.60;99.90
25332;DHT22;13284;52.748;13.452;2023-02-15T17:47:29;3.50;99.90
25332;DHT22;13284;52.748;13.452;2023-02-15T17:49:56;3.50;99.90
25332;DHT22;13284;52.748;13.452;2023-02-15T17:52:29;3.60;99.90
25332;DHT22;13284;52.748;13.452;2023-02-15T17:54:55;3.50;99.90
25332;DHT22;13284;52.748;13.452;2023-02-15T17:57:42;3.50;99.90
25332;DHT22;13284;52.748;13.452;2023-02-15T18:00:09;3.40;99.90
25332;DHT22;13284;52.748;13.452;2023-02-15T18:02:56;3.40;99.90
25332;DHT22;13284;52.748;13.452;2023-02-15T18:05:40;3.30;99.90
25332;DHT22;13284;52.748;13.452;2023-02-15T18:08:26;3.20;99.90
25332;DHT22;13284;52.748;13.452;2023-02-15T18:11:11;3.20;99.90
25332;DHT22;13284;52.748;13.452;2023-02-15T18:13:55;3.00;99.90
25332;DHT22;13284;52.748;13.452;2023-02-15T18:16:27;3.10;99.90
25332;DHT22;13284;52.748;13.452;2023-02-15T18:18:53;3.10;99.90
25332;DHT22;13284;52.748;13.452;2023-02-15T18:21:19;2.90;99.90
25332;DHT22;13284;52.748;13.452;2023-02-15T18:23:45;2.90;99.90
25332;DHT22;13284;52.748;13.452;2023-02-15T18:26:21;2.90;99.90
25332;DHT22;13284;52.748;13.452;2023-02-15T18:28:47;2.80;99.90
25332;DHT22;13284;52.748;13.452;2023-02-15T18:31:13;2.80;99.90
25332;DHT22;13284;52.748;13.452;2023-02-15T18:33:43;2.70;99.90
25332;DHT22;13284;52.748;13.452;2023-02-15T18:36:16;2.60;99.90
25332;DHT22;13284;52.748;13.452;2023-02-15T18:38:44;2.70;99.90
25332;DHT22;13284;52.748;13.452;2023-02-15T18:41:18;2.60;99.90
25332;DHT22;13284;52.748;13.452;2023-02-15T18:43:44;2.50;99.90